createdAt,value
2019-02-16T14:46:10.457Z,24.56
2019-02-16T14:47:10.641Z,24.18
2019-02-16T14:48:10.828Z,23.99
2019-02-16T14:49:11.012Z,25.45
2019-02-16T14:50:11.192Z,26.81
2019-02-16T14:51:11.394Z,25.64
2019-02-16T14:52:11.563Z,24.76
2019-02-16T14:53:11.746Z,24.17
2019-02-16T14:54:11.929Z,24.10
2019-02-16T14:55:12.113Z,24.01
2019-02-16T14:56:12.292Z,23.52
2019-02-16T14:57:12.486Z,23.22
2019-02-16T14:58:12.666Z,21.37
2019-02-16T14:59:12.851Z,21.77
2019-02-16T15:00:13.042Z,23.89
2019-02-16T15:01:13.220Z,24.77
2019-02-16T15:02:13.405Z,24.96
2019-02-16T15:03:13.589Z,24.38
2019-02-16T15:04:13.776Z,23.79
2019-02-16T15:05:13.964Z,23.88
2019-02-16T15:06:14.147Z,25.81
2019-02-16T15:07:14.329Z,26.59
2019-02-16T15:08:14.514Z,26.38
2019-02-16T15:09:14.699Z,24.72
2019-02-16T15:10:14.885Z,25.49
2019-02-16T15:11:15.068Z,27.81
2019-02-16T15:12:15.252Z,28.30
2019-02-16T15:13:15.436Z,26.85
2019-02-16T15:14:15.620Z,26.37
2019-02-16T15:15:15.804Z,26.07
2019-02-16T15:16:15.988Z,29.06
2019-02-16T15:17:16.176Z,28.76
2019-02-16T15:18:16.358Z,30.29
2019-02-16T15:19:16.541Z,30.47
2019-02-16T15:20:16.726Z,30.46
2019-02-16T15:21:16.908Z,30.36
2019-02-16T15:22:17.089Z,29.78
2019-02-16T15:23:17.276Z,29.97
2019-02-16T15:24:17.460Z,30.54
2019-02-16T15:25:17.637Z,31.33
2019-02-16T15:26:17.820Z,32.29
2019-02-16T15:27:18.001Z,29.49
2019-02-16T15:28:18.186Z,29.39
2019-02-16T15:29:18.367Z,31.80
2019-02-16T15:30:18.544Z,33.40
2019-02-16T15:31:18.731Z,33.02
2019-02-16T15:32:18.926Z,32.23
2019-02-16T15:33:19.093Z,33.00
2019-02-16T15:34:19.280Z,31.56
2019-02-16T15:35:20.613Z,30.30
2019-02-16T15:36:24.011Z,31.65
2019-02-16T15:37:19.833Z,33.28
2019-02-16T15:38:20.013Z,33.37
2019-02-16T15:39:20.191Z,31.75
2019-02-16T15:40:20.372Z,30.38
2019-02-16T15:41:20.553Z,30.87
2019-02-16T15:42:20.735Z,32.87
2019-02-16T15:43:20.911Z,33.25
2019-02-16T15:44:21.092Z,32.28
2019-02-16T15:45:21.273Z,31.69
2019-02-16T15:46:21.453Z,34.94
2019-02-16T15:47:21.637Z,37.04
2019-02-16T15:48:21.820Z,35.60
2019-02-16T15:49:22.002Z,34.45
2019-02-16T15:50:22.185Z,34.33
2019-02-16T15:51:22.365Z,34.72
2019-02-16T15:52:22.545Z,34.43
2019-02-16T15:53:22.726Z,35.18
2019-02-16T15:54:22.904Z,35.10
2019-02-16T15:55:23.082Z,35.18
2019-02-16T15:56:23.261Z,35.08
2019-02-16T15:57:23.438Z,34.70
2019-02-16T15:58:23.625Z,35.18
2019-02-16T15:59:23.795Z,35.18
2019-02-16T16:00:24.018Z,38.14
2019-02-16T16:01:24.202Z,38.62
2019-02-16T16:02:24.333Z,37.84
2019-02-16T16:03:24.511Z,37.74
2019-02-16T16:04:24.700Z,37.53
2019-02-16T16:05:24.865Z,41.93
2019-02-16T16:06:25.043Z,43.82
2019-02-16T16:07:25.218Z,44.85
2019-02-16T16:08:25.397Z,45.23
2019-02-16T16:09:25.574Z,44.27
2019-02-16T16:10:25.750Z,44.37
2019-02-16T16:11:25.928Z,44.73
2019-02-16T16:12:26.103Z,45.21
2019-02-16T16:13:26.281Z,45.98
2019-02-16T16:14:26.455Z,45.69
2019-02-16T16:15:26.634Z,45.89
2019-02-16T16:16:26.807Z,45.86
2019-02-16T16:17:26.983Z,46.82
2019-02-16T16:18:27.165Z,45.86
2019-02-16T16:19:27.333Z,45.67
2019-02-16T16:20:27.514Z,46.25
2019-02-16T16:21:27.691Z,47.01
2019-02-16T16:22:27.867Z,46.70
2019-02-16T16:23:28.043Z,47.08
2019-02-16T16:24:28.225Z,46.12
2019-02-16T16:25:28.404Z,45.84
2019-02-16T16:26:28.585Z,46.22
2019-02-16T16:27:28.765Z,46.70
2019-02-16T16:28:28.938Z,47.37
2019-02-16T16:29:29.119Z,46.98
2019-02-16T16:30:29.293Z,47.47
2019-02-16T16:31:29.475Z,47.18
2019-02-16T16:32:29.652Z,47.56
2019-02-16T16:33:29.829Z,47.18
2019-02-16T16:34:30.004Z,47.47
2019-02-16T16:35:30.183Z,48.39
2019-02-16T16:36:30.359Z,48.49
2019-02-16T16:37:30.535Z,49.45
2019-02-16T16:38:30.713Z,50.48
2019-02-16T16:39:30.889Z,51.24
2019-02-16T16:40:31.067Z,51.72
2019-02-16T16:41:31.240Z,51.81
2019-02-16T16:42:32.952Z,52.77
2019-02-16T16:43:31.590Z,52.94
2019-02-16T16:44:31.763Z,53.32
2019-02-16T16:45:31.943Z,53.32
2019-02-16T16:46:32.120Z,53.80
2019-02-16T16:47:32.294Z,54.06
2019-02-16T16:48:32.466Z,54.53
2019-02-16T16:49:32.642Z,53.96
2019-02-16T16:50:32.819Z,54.63
2019-02-16T16:51:32.993Z,55.77
2019-02-16T16:52:33.171Z,55.87
2019-02-16T16:53:33.346Z,56.25
2019-02-16T16:54:34.750Z,57.18
2019-02-16T16:55:33.700Z,58.70
2019-02-16T16:56:33.875Z,59.47
2019-02-16T16:57:34.050Z,59.95
2019-02-16T16:58:34.223Z,60.11
2019-02-16T16:59:35.385Z,60.78
2019-02-16T17:00:34.576Z,60.49
2019-02-16T17:01:34.748Z,60.02
2019-02-16T17:02:34.921Z,59.92
2019-02-16T17:17:22.273Z,67.07
2019-02-16T17:18:22.449Z,68.69
2019-02-16T17:19:22.620Z,69.70
2019-02-16T17:22:54.519Z,70.47
2019-02-16T17:23:54.690Z,70.65
2019-02-16T17:24:54.863Z,69.99
2019-02-16T17:25:55.035Z,69.85
2019-02-16T17:26:55.208Z,71.19
2019-02-16T17:27:55.377Z,71.32
2019-02-16T17:28:55.551Z,71.22
2019-02-16T17:29:55.726Z,71.22
2019-02-16T17:30:55.898Z,71.76
2019-02-16T17:31:56.068Z,71.76
2019-02-16T17:32:56.241Z,71.47
2019-02-16T17:33:56.410Z,72.05
2019-02-16T17:34:56.581Z,72.62
2019-02-16T17:35:56.752Z,72.71
2019-02-16T17:36:56.924Z,73.19
2019-02-16T17:37:57.095Z,73.28
2019-02-16T17:38:57.265Z,73.44
2019-02-16T17:39:57.437Z,74.10
2019-02-16T17:40:57.612Z,75.05
2019-02-16T17:41:57.783Z,74.29
2019-02-16T17:42:57.952Z,75.43
2019-02-16T17:43:58.123Z,75.05
2019-02-16T17:44:58.292Z,75.34
2019-02-16T17:45:58.466Z,76.29
2019-02-16T17:46:58.639Z,76.20
2019-02-16T17:47:58.807Z,76.39
2019-02-16T17:48:58.996Z,76.10
2019-02-16T17:49:59.145Z,76.10
2019-02-16T17:50:59.316Z,75.53
2019-02-16T17:51:59.481Z,75.24
2019-02-16T17:52:59.676Z,75.91
2019-02-16T17:54:08.165Z,76.29
2019-02-16T17:55:00.019Z,76.67
2019-02-16T17:56:00.188Z,76.48
2019-02-16T17:57:00.368Z,76.86
2019-02-16T17:58:00.549Z,77.39
2019-02-16T17:59:00.726Z,76.63
2019-02-16T18:00:00.923Z,76.82
2019-02-16T18:30:57.371Z,82.35
2019-02-16T18:31:57.549Z,82.16
2019-02-16T18:32:57.720Z,82.64
2019-02-16T18:33:57.899Z,82.64
2019-02-16T18:34:58.077Z,82.92
2019-02-16T18:35:58.242Z,82.07
2019-02-16T18:36:58.403Z,82.73
2019-02-16T18:37:58.594Z,83.20
2019-02-16T18:38:58.751Z,83.30
2019-02-16T18:39:58.999Z,83.26
2019-02-16T18:40:59.098Z,83.92
2019-02-16T18:41:59.268Z,83.92
2019-02-16T18:42:59.436Z,83.45
2019-02-16T18:44:00.038Z,84.21
2019-02-16T18:44:59.792Z,84.30
2019-02-16T18:45:59.950Z,84.30
2019-02-16T18:47:00.206Z,84.30
2019-02-16T18:48:00.293Z,84.97
2019-02-16T18:49:00.478Z,85.16
2019-02-16T18:50:00.640Z,84.87
2019-02-16T18:51:00.821Z,84.78
2019-02-16T18:52:00.977Z,85.25
2019-02-16T18:53:01.148Z,85.63
2019-02-16T18:54:01.319Z,85.82
2019-02-16T18:55:10.617Z,85.63
2019-02-16T18:56:01.663Z,86.01
2019-02-16T18:57:06.704Z,86.20
2019-02-16T18:58:02.005Z,86.01
2019-02-16T18:59:02.197Z,85.06
2019-02-16T19:00:03.265Z,84.78
2019-02-16T20:00:57.818Z,88.25
2019-02-16T20:01:57.981Z,88.35
2019-02-16T20:02:58.153Z,88.44
2019-02-16T20:03:58.322Z,88.82
2019-02-16T20:04:58.489Z,88.63
2019-02-16T20:05:58.660Z,88.63
2019-02-16T20:06:58.826Z,89.96
2019-02-16T20:07:58.991Z,90.34
2019-02-16T20:08:59.169Z,90.72
2019-02-16T20:09:59.330Z,90.34
2019-02-16T20:10:59.499Z,90.62
2019-02-16T20:11:59.668Z,90.43
2019-02-16T20:12:59.835Z,90.62
2019-02-16T20:14:00.005Z,90.34
2019-02-16T20:15:00.302Z,89.91
2019-02-16T20:16:00.342Z,90.19
2019-02-16T20:17:00.517Z,90.29
2019-02-16T20:18:00.680Z,90.34
2019-02-16T20:19:00.853Z,90.38
2019-02-16T20:20:01.017Z,90.29
2019-02-16T20:21:01.184Z,89.91
2019-02-16T20:22:01.370Z,89.48
2019-02-16T20:23:01.523Z,89.86
2019-02-16T20:24:01.692Z,89.58
2019-02-16T20:25:01.861Z,90.53
2019-02-16T20:26:02.029Z,90.34
2019-02-16T20:27:02.200Z,90.53
2019-02-16T20:28:02.371Z,89.96
2019-02-16T20:29:02.535Z,89.48
2019-02-16T20:30:02.704Z,89.58
2019-02-16T20:31:02.878Z,89.20
2019-02-16T20:32:03.041Z,89.20
2019-02-16T20:33:03.209Z,89.34
2019-02-16T20:34:03.378Z,89.96
2019-02-16T20:35:03.547Z,90.48
2019-02-16T20:36:03.717Z,90.43
2019-02-16T20:37:03.882Z,90.62
2019-02-16T20:38:04.052Z,90.29
2019-02-16T20:39:04.218Z,90.01
2019-02-16T20:40:04.385Z,90.39
2019-02-16T20:41:04.559Z,90.48
2019-02-16T20:42:04.724Z,90.39
2019-02-16T20:43:04.899Z,90.39
2019-02-16T20:44:05.069Z,90.20
2019-02-16T20:45:05.235Z,90.77
2019-02-16T20:46:05.408Z,91.24
2019-02-16T20:47:05.574Z,91.33
2019-02-16T20:48:05.741Z,91.76
2019-02-16T20:49:05.914Z,91.62
2019-02-16T20:50:06.080Z,92.42
2019-02-16T20:51:06.247Z,91.76
2019-02-16T20:52:06.416Z,91.85
2019-02-16T20:53:06.584Z,91.47
2019-02-16T20:54:06.752Z,91.38
2019-02-16T20:55:06.922Z,91.33
2019-02-16T20:56:07.092Z,90.29
2019-02-16T20:57:07.268Z,90.39
2019-02-16T20:58:07.428Z,90.01
2019-02-16T20:59:07.596Z,89.44
2019-02-16T21:15:55.177Z,90.58
2019-02-16T21:16:55.276Z,91.05
2019-02-16T21:17:57.438Z,91.00
2019-02-16T21:18:55.610Z,90.81
2019-02-16T21:19:55.779Z,91.10
2019-02-16T21:20:55.948Z,91.19
2019-02-16T21:21:56.113Z,91.67
2019-02-16T21:22:58.483Z,92.14
2019-02-16T21:23:56.451Z,91.67
2019-02-16T21:24:56.620Z,92.24
2019-02-16T21:25:56.788Z,92.24
2019-02-16T21:26:56.962Z,92.14
2019-02-16T21:27:58.252Z,92.14
2019-02-16T21:28:57.293Z,92.80
2019-02-16T21:29:58.660Z,92.99
2019-02-16T21:30:57.631Z,92.71
2019-02-16T21:31:57.769Z,92.71
2019-02-16T21:32:57.937Z,93.18
2019-02-16T21:33:58.101Z,92.99
2019-02-16T21:34:58.261Z,92.66
2019-02-16T21:35:58.438Z,92.90
2019-02-16T21:36:58.604Z,92.85
2019-02-16T21:37:58.771Z,93.37
2019-02-16T21:39:03.190Z,92.94
2019-02-16T21:39:59.144Z,92.94
2019-02-16T21:40:59.273Z,93.04
2019-02-16T21:41:59.442Z,93.80
2019-02-16T21:42:59.614Z,93.61
2019-02-16T21:43:59.779Z,93.80
2019-02-16T21:44:59.949Z,93.04
2019-02-16T21:46:00.113Z,92.94
2019-02-16T21:47:02.678Z,93.42
2019-02-16T21:48:00.502Z,92.76
2019-02-16T21:49:00.618Z,93.04
2019-02-16T21:50:00.789Z,93.13
2019-02-16T21:51:00.952Z,92.28
2019-02-16T21:52:01.124Z,92.85
2019-02-16T21:53:01.288Z,92.71
2019-02-16T21:54:01.454Z,92.05
2019-02-16T21:55:01.624Z,91.95
2019-02-16T21:56:01.790Z,92.24
2019-02-16T21:57:01.958Z,92.33
2019-02-16T21:58:08.155Z,91.95
2019-02-16T21:59:02.295Z,92.24
2019-02-16T22:00:02.466Z,92.43
